Time;durP1;ratioP1;P1;durP2;ratioP2;P2;SDS_P1;SDS_P2;PMS_P1;PMS_P2;Temp;Humidity;BMP_temperature;BMP_pressure;BME280_temperature;BME280_humidity;BME280_pressure;Samples;Min_cycle;Max_cycle;Signal;HPM_P1;HPM_P2
2021/08/09 06:33:28;;;;;;;4.40;2.90;;;;;;;22.16;70.42;100597.99;115318;1202;544344;-80
2021/08/09 06:35:56;;;;;;;7.30;3.30;;;;;;;23.39;66.92;100592.31;116795;1190;24160;-74
2021/08/09 06:38:24;;;;;;;6.30;3.10;;;;;;;24.47;64.12;100589.54;116832;1191;21961;-65
2021/08/09 06:40:53;;;;;;;4.10;2.70;;;;;;;25.44;61.50;100585.24;116829;1189;23435;-65
2021/08/09 06:43:21;;;;;;;5.90;2.60;;;;;;;26.15;59.21;100579.18;117078;1188;23432;-66
2021/08/09 06:45:54;;;;;;;4.50;2.70;;;;;;;26.67;58.00;100582.46;117020;1180;23459;-75
2021/08/09 06:48:26;;;;;;;4.30;2.30;;;;;;;27.17;56.67;100581.50;117058;1187;23455;-64
2021/08/09 06:50:55;;;;;;;4.80;2.30;;;;;;;27.89;54.70;100576.31;117085;1188;21843;-73
2021/08/09 06:53:24;;;;;;;3.40;2.10;;;;;;;28.37;53.08;100570.00;117092;1188;21883;-65
2021/08/09 06:55:52;;;;;;;4.10;2.20;;;;;;;28.83;51.75;100560.93;117001;1188;23442;-81
2021/08/09 06:58:20;;;;;;;7.00;2.20;;;;;;;29.20;50.83;100562.80;116970;1182;23429;-81
2021/08/09 07:00:48;;;;;;;4.90;2.30;;;;;;;29.60;49.92;100560.55;117107;1182;21898;-78
2021/08/09 07:03:18;;;;;;;5.50;2.50;;;;;;;29.96;48.87;100566.55;117192;1187;21979;-67
2021/08/09 07:05:46;;;;;;;3.30;2.20;;;;;;;30.29;48.31;100567.92;117117;1186;23452;-82
2021/08/09 07:08:14;;;;;;;4.20;2.60;;;;;;;30.66;47.23;100574.98;117098;1189;21855;-66
2021/08/09 07:10:44;;;;;;;3.20;2.20;;;;;;;30.88;46.15;100576.48;117079;1185;21857;-79
2021/08/09 07:13:13;;;;;;;3.20;2.30;;;;;;;31.15;45.54;100577.41;117070;1188;21962;-68
2021/08/09 07:15:42;;;;;;;6.90;2.40;;;;;;;31.28;44.79;100578.29;117069;1188;22293;-81
2021/08/09 07:18:10;;;;;;;4.90;2.20;;;;;;;31.40;44.40;100578.45;117012;1186;21845;-65
2021/08/09 07:20:39;;;;;;;4.20;1.60;;;;;;;31.61;43.71;100581.14;117162;1188;21846;-79
2021/08/09 07:23:07;;;;;;;5.10;1.90;;;;;;;31.84;43.01;100575.98;116970;1191;22311;-69
2021/08/09 07:25:36;;;;;;;3.00;2.10;;;;;;;31.99;42.25;100580.89;117090;1188;21848;-69
2021/08/09 07:28:05;;;;;;;3.90;1.80;;;;;;;32.16;42.30;100583.75;117055;1189;23606;-80
2021/08/09 07:30:33;;;;;;;11.20;3.30;;;;;;;32.36;42.26;100584.82;117156;1185;24157;-70
2021/08/09 07:33:01;;;;;;;7.80;3.10;;;;;;;32.48;41.68;100582.11;117100;1185;23535;-83
2021/08/09 07:35:29;;;;;;;4.70;2.30;;;;;;;32.55;41.33;100581.94;116910;1189;21857;-68
2021/08/09 07:37:58;;;;;;;4.60;2.30;;;;;;;32.64;40.40;100580.11;117059;1183;21869;-81
2021/08/09 07:40:26;;;;;;;4.60;1.80;;;;;;;32.70;40.22;100578.61;116734;1190;21867;-84
2021/08/09 07:42:54;;;;;;;3.40;2.10;;;;;;;32.66;40.52;100576.72;117019;1188;23836;-77
2021/08/09 07:45:22;;;;;;;3.10;2.10;;;;;;;32.74;40.45;100576.36;117037;1189;23433;-68
2021/08/09 07:47:55;;;;;;;2.30;1.90;;;;;;;32.79;40.60;100576.59;116993;1185;22667;-76
2021/08/09 07:50:23;;;;;;;3.30;2.00;;;;;;;32.81;40.44;100574.90;117040;1188;21858;-76
2021/08/09 07:52:51;;;;;;;3.60;2.20;;;;;;;32.97;40.13;100574.09;116946;1185;23459;-70
2021/08/09 07:55:19;;;;;;;4.90;2.20;;;;;;;33.15;39.73;100573.23;117441;1185;22638;-69
2021/08/09 07:57:48;;;;;;;6.40;2.60;;;;;;;33.25;39.37;100573.67;117450;1182;21856;-82
2021/08/09 08:00:16;;;;;;;3.20;2.00;;;;;;;33.24;38.98;100574.48;117354;1184;21858;-70
2021/08/09 08:02:44;;;;;;;7.50;2.00;;;;;;;33.09;38.38;100576.81;117447;1185;23423;-68
2021/08/09 08:05:13;;;;;;;54.30;5.10;;;;;;;32.91;39.00;100580.13;117449;1183;21976;-69
2021/08/09 08:07:42;;;;;;;11.60;2.90;;;;;;;32.83;38.55;100578.04;117480;1182;21842;-81
2021/08/09 08:10:10;;;;;;;6.00;2.30;;;;;;;32.98;38.59;100574.54;117505;1182;21852;-69
2021/08/09 08:12:58;;;;;;;2.90;1.90;;;;;;;33.23;38.71;100570.80;117391;1184;22946;-82
2021/08/09 08:15:26;;;;;;;10.30;2.40;;;;;;;33.37;38.82;100567.48;117196;1182;21912;-75
2021/08/09 08:17:58;;;;;;;5.60;2.20;;;;;;;33.63;38.63;100569.68;117391;1185;21881;-83
2021/08/09 08:20:27;;;;;;;3.70;1.90;;;;;;;33.88;37.24;100568.86;117518;1182;21855;-82
2021/08/09 08:22:57;;;;;;;3.70;1.80;;;;;;;33.88;37.26;100566.06;117390;1185;21910;-70
2021/08/09 08:25:25;;;;;;;3.20;1.90;;;;;;;34.00;36.73;100568.13;117408;1185;21854;-69
2021/08/09 08:27:53;;;;;;;5.30;2.10;;;;;;;33.96;36.75;100567.77;117502;1185;22923;-68
2021/08/09 08:30:21;;;;;;;3.20;1.80;;;;;;;34.06;36.61;100569.09;117541;1185;21845;-69
2021/08/09 08:33:01;;;;;;;3.20;1.70;;;;;;;34.13;36.70;100572.72;117493;1183;23442;-69
2021/08/09 08:35:29;;;;;;;6.10;2.00;;;;;;;34.13;36.79;100568.17;117396;1185;21851;-80
2021/08/09 08:37:57;;;;;;;4.20;2.20;;;;;;;34.15;36.41;100570.88;117440;1183;21845;-78
2021/08/09 08:40:25;;;;;;;3.90;1.80;;;;;;;34.25;35.94;100572.61;117506;1185;21853;-67
2021/08/09 08:42:58;;;;;;;4.00;2.00;;;;;;;34.30;35.92;100568.64;117434;1182;23560;-82
2021/08/09 08:45:29;;;;;;;4.30;2.20;;;;;;;34.45;36.14;100560.25;117425;1185;21854;-80
2021/08/09 08:47:57;;;;;;;3.40;1.70;;;;;;;34.71;36.17;100556.70;117423;1186;22889;-69
2021/08/09 08:50:26;;;;;;;4.60;1.90;;;;;;;35.10;35.94;100551.61;117536;1182;21898;-69
2021/08/09 08:52:54;;;;;;;11.20;2.70;;;;;;;35.41;34.93;100551.34;117478;1182;21851;-68
2021/08/09 08:55:23;;;;;;;2.60;1.80;;;;;;;35.51;34.03;100551.89;117370;1177;21826;-80
2021/08/09 08:57:52;;;;;;;4.20;2.00;;;;;;;35.47;33.25;100556.11;117433;1183;21922;-80
2021/08/09 09:00:22;;;;;;;3.10;1.80;;;;;;;35.42;33.51;100554.98;117489;1185;24201;-68
2021/08/09 09:02:50;;;;;;;3.30;2.00;;;;;;;35.42;33.89;100547.48;117511;1186;21857;-72
2021/08/09 09:05:20;;;;;;;4.00;2.00;;;;;;;35.61;34.18;100544.09;117373;1185;23763;-70
2021/08/09 09:07:50;;;;;;;3.40;2.20;;;;;;;35.89;34.14;100542.48;117435;1185;22953;-68
2021/08/09 09:10:24;;;;;;;2.90;1.90;;;;;;;36.17;33.79;100544.31;117450;1185;21882;-80
2021/08/09 09:13:06;;;;;;;4.00;1.80;;;;;;;36.41;33.35;100538.58;117431;1186;21861;-82
2021/08/09 09:15:55;;;;;;;3.10;1.70;;;;;;;36.71;32.44;100543.71;117347;1185;23429;-68
2021/08/09 09:18:28;;;;;;;3.50;1.50;;;;;;;36.78;31.93;100544.73;117442;1182;22606;-70
2021/08/09 09:20:56;;;;;;;4.30;1.90;;;;;;;36.85;31.80;100544.68;117428;1187;22908;-68
2021/08/09 09:23:26;;;;;;;5.80;1.90;;;;;;;36.97;31.32;100547.08;117390;1186;21864;-74
2021/08/09 09:25:54;;;;;;;4.20;1.70;;;;;;;37.05;30.69;100548.42;117571;1186;22896;-79
2021/08/09 09:28:28;;;;;;;3.90;1.90;;;;;;;37.18;30.47;100548.73;117328;1185;21854;-82
2021/08/09 09:31:05;;;;;;;4.40;1.70;;;;;;;37.38;30.06;100549.88;117463;1182;23429;-70
2021/08/09 09:33:33;;;;;;;2.50;1.60;;;;;;;37.58;30.21;100556.00;117445;1186;22628;-69
2021/08/09 09:36:03;;;;;;;2.80;1.60;;;;;;;37.56;30.15;100558.21;117492;1186;22880;-80
2021/08/09 09:38:42;;;;;;;3.20;1.90;;;;;;;37.63;30.35;100557.54;117339;1184;23429;-69
2021/08/09 09:41:10;;;;;;;4.90;2.20;;;;;;;37.74;29.87;100556.98;117460;1185;21851;-68
2021/08/09 09:43:42;;;;;;;2.90;1.70;;;;;;;37.57;29.81;100561.27;117448;1186;22239;-68
2021/08/09 09:46:23;;;;;;;4.40;2.10;;;;;;;37.42;30.30;100565.66;117430;1185;23478;-69
2021/08/09 09:48:55;;;;;;;3.30;2.20;;;;;;;37.32;29.55;100565.53;117326;1185;22865;-69
2021/08/09 09:51:24;;;;;;;4.50;2.30;;;;;;;37.21;29.59;100569.48;117416;1183;21855;-77
2021/08/09 09:53:52;;;;;;;3.20;2.00;;;;;;;37.05;29.80;100571.66;117479;1185;21852;-67
2021/08/09 09:56:20;;;;;;;4.20;2.00;;;;;;;36.97;29.91;100573.14;117367;1185;21857;-83
2021/08/09 09:58:49;;;;;;;4.20;2.00;;;;;;;36.90;29.59;100578.51;117392;1182;21852;-79
2021/08/09 10:01:17;;;;;;;3.50;2.00;;;;;;;36.96;29.33;100580.20;117311;1182;21858;-72
2021/08/09 10:03:46;;;;;;;5.30;2.40;;;;;;;36.96;28.97;100584.81;117425;1186;21882;-69
2021/08/09 10:06:15;;;;;;;8.70;2.70;;;;;;;36.92;29.79;100587.64;117470;1183;21861;-66
2021/08/09 10:08:47;;;;;;;6.60;2.00;;;;;;;36.94;29.29;100583.79;117365;1182;22624;-70
2021/08/09 10:11:15;;;;;;;6.90;1.90;;;;;;;36.99;28.46;100586.68;117225;1185;21845;-76
2021/08/09 10:13:43;;;;;;;3.40;1.90;;;;;;;37.12;28.71;100592.90;117397;1186;22981;-77
2021/08/09 10:16:33;;;;;;;2.70;1.80;;;;;;;37.15;28.70;100589.06;117324;1186;21845;-73
2021/08/09 10:19:03;;;;;;;4.70;2.00;;;;;;;37.22;28.98;100586.08;117400;1183;21901;-70
2021/08/09 10:21:32;;;;;;;;;;;;;;;37.38;28.70;100588.80;117405;1186;21833;-79
2021/08/09 10:24:01;;;;;;;7.40;2.30;;;;;;;37.42;28.51;100590.16;117420;1185;22899;-78
2021/08/09 10:26:33;;;;;;;4.50;2.10;;;;;;;37.27;28.75;100589.79;117396;1185;21844;-69
2021/08/09 10:29:08;;;;;;;4.10;1.80;;;;;;;37.19;28.38;100588.06;117544;1183;24135;-70
2021/08/09 10:31:46;;;;;;;7.30;1.60;;;;;;;37.15;29.15;100587.59;117474;1185;23006;-74
2021/08/09 10:34:33;;;;;;;3.20;1.80;;;;;;;37.20;28.92;100582.05;117341;1185;21854;-70
2021/08/09 10:37:14;;;;;;;2.00;1.80;;;;;;;37.24;28.45;100582.14;117399;1185;23468;-67
2021/08/09 10:39:45;;;;;;;2.60;1.70;;;;;;;37.35;28.17;100582.08;117378;1185;21855;-75
2021/08/09 10:42:37;;;;;;;7.50;2.00;;;;;;;37.32;27.02;100581.28;117398;1182;23432;-78
2021/08/09 10:45:10;;;;;;;4.20;1.70;;;;;;;37.25;26.87;100580.31;117395;1182;23434;-76
2021/08/09 10:47:55;;;;;;;6.50;2.10;;;;;;;37.23;27.60;100576.18;117365;1185;22918;-79
2021/08/09 10:50:26;;;;;;;4.10;1.80;;;;;;;37.21;26.86;100573.15;117455;1182;23538;-72
2021/08/09 10:52:55;;;;;;;3.50;1.80;;;;;;;37.12;26.71;100571.89;117420;1186;21850;-74
2021/08/09 10:55:29;;;;;;;4.10;1.70;;;;;;;37.01;26.63;100569.55;117508;1185;22883;-70
2021/08/09 10:57:59;;;;;;;3.20;1.30;;;;;;;37.07;26.78;100566.30;117382;1185;21855;-78
2021/08/09 11:00:39;;;;;;;1.90;1.40;;;;;;;37.15;27.09;100566.77;117492;1182;22624;-78
2021/08/09 11:03:08;;;;;;;2.50;1.70;;;;;;;37.11;27.01;100569.85;117406;1182;21851;-72
2021/08/09 11:05:36;;;;;;;3.90;1.50;;;;;;;37.20;26.36;100569.80;117551;1185;21954;-78
2021/08/09 11:08:24;;;;;;;3.20;1.80;;;;;;;37.14;25.88;100565.76;117320;1186;22909;-73
2021/08/09 11:11:07;;;;;;;3.60;1.70;;;;;;;37.11;25.87;100563.23;117414;1183;21853;-68
2021/08/09 11:13:37;;;;;;;4.20;1.70;;;;;;;37.15;26.42;100564.04;117419;1185;21904;-72
2021/08/09 11:16:05;;;;;;;2.30;1.70;;;;;;;37.21;26.48;100559.90;117348;1185;23564;-75
2021/08/09 11:18:36;;;;;;;3.50;1.80;;;;;;;37.38;26.34;100559.15;117411;1182;23089;-75
2021/08/09 11:21:06;;;;;;;3.70;1.90;;;;;;;37.40;26.64;100562.77;117404;1186;21851;-71
2021/08/09 11:23:42;;;;;;;2.50;2.00;;;;;;;37.22;26.77;100551.82;117444;1182;23557;-75
2021/08/09 11:26:22;;;;;;;2.80;2.00;;;;;;;37.07;27.12;100551.94;117455;1186;21842;-76
2021/08/09 11:28:59;;;;;;;3.70;2.00;;;;;;;37.02;27.29;100548.43;117419;1182;23643;-76
2021/08/09 11:31:27;;;;;;;3.10;2.00;;;;;;;36.93;26.49;100546.55;117407;1183;22817;-67
2021/08/09 11:33:57;;;;;;;6.80;2.10;;;;;;;36.86;25.83;100544.08;117409;1183;22909;-71
2021/08/09 11:36:26;;;;;;;3.30;2.00;;;;;;;36.85;26.27;100539.32;117250;1186;22911;-72
2021/08/09 11:38:55;;;;;;;4.80;2.00;;;;;;;37.02;26.49;100540.03;117359;1188;21860;-77
2021/08/09 11:41:25;;;;;;;3.30;2.00;;;;;;;37.28;26.10;100539.77;117324;1185;23492;-70
2021/08/09 11:44:10;;;;;;;3.00;2.10;;;;;;;37.39;26.03;100532.05;117430;1182;21881;-72
2021/08/09 11:46:47;;;;;;;3.90;2.10;;;;;;;37.49;25.57;100521.66;117365;1183;23432;-75
2021/08/09 11:49:16;;;;;;;2.90;2.20;;;;;;;37.55;26.35;100520.90;117507;1184;21848;-71
2021/08/09 11:51:44;;;;;;;4.60;2.10;;;;;;;37.53;26.31;100518.81;117451;1185;21855;-76
2021/08/09 11:54:13;;;;;;;4.50;1.80;;;;;;;37.45;25.39;100517.92;117339;1179;23459;-72
2021/08/09 11:56:43;;;;;;;2.70;2.00;;;;;;;37.44;25.95;100517.72;117384;1185;23482;-74
2021/08/09 11:59:15;;;;;;;4.50;2.30;;;;;;;37.47;26.11;100514.41;117167;1188;21862;-72
2021/08/09 12:01:47;;;;;;;3.30;1.90;;;;;;;37.53;25.95;100512.48;117340;1185;22950;-70
2021/08/09 12:04:31;;;;;;;3.30;2.00;;;;;;;37.64;25.20;100505.38;117408;1185;23554;-71
2021/08/09 12:07:00;;;;;;;5.70;2.20;;;;;;;37.80;25.61;100506.26;117429;1186;21854;-73
2021/08/09 12:09:47;;;;;;;3.30;2.30;;;;;;;37.96;25.54;100502.03;117473;1185;21845;-74
2021/08/09 12:12:40;;;;;;;3.60;2.00;;;;;;;37.79;25.73;100499.70;117330;1188;21854;-71
2021/08/09 12:15:08;;;;;;;;;;;;;;;37.77;26.15;100495.83;117248;1185;23612;-75
2021/08/09 12:17:41;;;;;;;3.40;2.30;;;;;;;37.66;26.35;100493.70;117361;1184;21853;-76
2021/08/09 12:20:15;;;;;;;7.50;3.20;;;;;;;37.49;26.83;100493.77;117496;1184;21838;-71
2021/08/09 12:22:44;;;;;;;4.40;2.60;;;;;;;37.41;27.42;100496.05;117267;1188;21860;-72
2021/08/09 12:25:25;;;;;;;3.70;2.50;;;;;;;37.33;27.62;100493.39;117332;1186;21858;-74
2021/08/09 12:28:01;;;;;;;7.30;2.50;;;;;;;37.39;27.15;100491.91;117261;1183;24688;-74
2021/08/09 12:30:30;;;;;;;3.30;2.20;;;;;;;37.63;27.13;100492.31;117334;1186;22908;-69
2021/08/09 12:33:00;;;;;;;3.10;2.20;;;;;;;37.57;27.26;100488.25;117280;1185;21857;-71
2021/08/09 12:35:37;;;;;;;4.60;2.40;;;;;;;37.59;26.91;100485.02;117363;1185;23516;-68
2021/08/09 12:38:07;;;;;;;3.30;2.50;;;;;;;37.59;26.57;100485.60;117440;1188;22930;-74
2021/08/09 12:40:47;;;;;;;9.10;2.70;;;;;;;37.71;26.39;100480.04;117341;1185;21853;-71
2021/08/09 12:43:16;;;;;;;6.80;2.10;;;;;;;37.81;26.18;100470.23;117343;1185;21862;-72
2021/08/09 12:45:47;;;;;;;15.90;3.00;;;;;;;37.87;26.15;100469.66;117349;1184;23573;-73
2021/08/09 12:48:16;;;;;;;21.50;3.30;;;;;;;37.79;26.16;100471.78;117401;1186;23526;-73
2021/08/09 12:50:46;;;;;;;12.30;4.00;;;;;;;37.71;26.92;100469.68;117358;1183;21847;-72
2021/08/09 12:53:14;;;;;;;18.50;3.50;;;;;;;37.72;27.25;100473.50;117379;1183;24159;-70
2021/08/09 12:55:43;;;;;;;4.00;2.50;;;;;;;37.76;27.25;100477.45;117365;1186;21885;-74
2021/08/09 12:58:12;;;;;;;19.10;3.30;;;;;;;37.65;27.70;100476.84;117426;1186;21860;-72
2021/08/09 13:00:42;;;;;;;20.00;2.90;;;;;;;37.70;27.14;100476.14;117367;1182;23310;-73
2021/08/09 13:03:11;;;;;;;3.40;2.30;;;;;;;37.75;26.83;100477.91;117335;1183;21843;-69
2021/08/09 13:05:43;;;;;;;5.80;2.40;;;;;;;37.66;27.34;100482.25;117342;1186;21855;-72
2021/08/09 13:08:12;;;;;;;11.30;2.30;;;;;;;37.61;27.12;100480.80;117434;1182;22076;-72
2021/08/09 13:11:02;;;;;;;6.00;2.50;;;;;;;37.65;27.21;100480.13;117362;1184;21881;-71
2021/08/09 13:13:31;;;;;;;4.70;2.30;;;;;;;37.62;27.44;100485.02;117407;1186;21854;-73
2021/08/09 13:16:01;;;;;;;3.10;2.10;;;;;;;37.63;27.43;100483.15;117381;1185;24133;-70
2021/08/09 13:18:34;;;;;;;3.00;2.30;;;;;;;37.65;27.44;100485.91;117352;1186;21853;-71
2021/08/09 13:21:04;;;;;;;3.80;2.20;;;;;;;37.67;27.36;100493.63;117246;1185;21889;-71
2021/08/09 13:23:34;;;;;;;4.70;2.50;;;;;;;37.50;27.14;100490.20;117345;1183;21844;-72
2021/08/09 13:26:05;;;;;;;5.40;2.50;;;;;;;37.47;27.27;100488.33;117400;1183;24236;-74
2021/08/09 13:28:34;;;;;;;2.80;2.20;;;;;;;37.47;27.46;100488.73;117405;1185;21881;-70
2021/08/09 13:31:02;;;;;;;4.20;2.70;;;;;;;37.39;27.20;100489.20;117439;1185;21858;-67
2021/08/09 13:33:33;;;;;;;3.10;2.10;;;;;;;37.26;27.20;100491.41;117186;1188;23484;-75
2021/08/09 13:36:03;;;;;;;3.30;2.20;;;;;;;37.21;26.69;100492.49;117365;1182;23657;-73
2021/08/09 13:38:32;;;;;;;4.60;2.60;;;;;;;37.13;27.15;100493.48;117416;1186;21933;-70
2021/08/09 13:41:05;;;;;;;6.30;2.80;;;;;;;37.05;27.07;100489.34;117408;1185;22911;-71
2021/08/09 13:43:37;;;;;;;5.00;2.70;;;;;;;36.96;27.33;100489.93;117323;1186;22626;-71
2021/08/09 13:46:08;;;;;;;2.60;2.00;;;;;;;36.91;27.50;100493.39;117323;1185;22609;-71
2021/08/09 13:48:38;;;;;;;6.20;2.30;;;;;;;36.85;27.17;100495.59;117298;1182;22676;-75
2021/08/09 13:51:06;;;;;;;4.30;2.50;;;;;;;36.72;26.92;100497.63;117370;1185;22823;-73
2021/08/09 13:53:35;;;;;;;4.90;2.50;;;;;;;36.59;27.35;100497.19;117299;1186;24159;-72
2021/08/09 13:56:04;;;;;;;5.00;2.40;;;;;;;36.47;27.38;100494.37;117326;1185;23533;-69
2021/08/09 13:58:33;;;;;;;3.80;2.60;;;;;;;36.37;27.48;100492.23;117311;1185;23614;-70
2021/08/09 14:01:02;;;;;;;3.00;2.20;;;;;;;36.25;28.15;100489.16;117273;1186;22903;-76
2021/08/09 14:03:32;;;;;;;5.10;2.70;;;;;;;36.09;29.02;100488.35;117163;1184;22651;-69
2021/08/09 14:06:01;;;;;;;;;;;;;;;35.97;28.63;100492.46;117211;1183;23436;-72
2021/08/09 14:08:29;;;;;;;4.40;2.50;;;;;;;35.98;28.83;100490.48;117460;1185;22149;-70
2021/08/09 14:10:58;;;;;;;4.00;2.30;;;;;;;35.99;28.88;100489.99;117776;1184;21854;-70
2021/08/09 14:13:26;;;;;;;8.40;2.70;;;;;;;35.85;29.31;100489.16;117339;1185;21848;-68
2021/08/09 14:16:00;;;;;;;7.50;2.90;;;;;;;35.76;29.37;100488.75;117235;1182;21845;-69
2021/08/09 14:18:49;;;;;;;4.00;2.40;;;;;;;35.71;29.12;100489.30;117231;1185;21845;-68
2021/08/09 14:21:17;;;;;;;5.30;2.60;;;;;;;35.75;29.05;100482.13;117328;1185;21848;-70
2021/08/09 14:23:46;;;;;;;3.70;2.50;;;;;;;35.80;28.98;100479.44;117336;1186;21901;-72
2021/08/09 14:26:14;;;;;;;9.50;3.10;;;;;;;35.75;29.23;100481.52;117313;1186;21850;-70
2021/08/09 14:28:43;;;;;;;3.70;2.40;;;;;;;35.71;29.38;100479.82;117385;1186;22622;-69
2021/08/09 14:31:11;;;;;;;4.10;2.90;;;;;;;35.75;28.82;100475.90;117337;1185;21845;-69
2021/08/09 14:33:39;;;;;;;5.40;2.30;;;;;;;35.66;28.77;100473.87;117352;1184;21857;-70
2021/08/09 14:36:08;;;;;;;3.00;2.20;;;;;;;35.58;28.59;100477.10;117308;1183;21858;-70
2021/08/09 14:38:38;;;;;;;3.90;2.30;;;;;;;35.56;28.53;100473.23;117409;1184;21855;-69
2021/08/09 14:41:06;;;;;;;4.70;2.40;;;;;;;35.49;28.83;100472.73;117425;1183;21845;-72
2021/08/09 14:43:35;;;;;;;3.30;2.30;;;;;;;35.44;28.96;100471.58;117354;1180;23467;-69
2021/08/09 14:46:04;;;;;;;4.60;2.80;;;;;;;35.35;29.28;100477.56;117295;1185;21854;-70
2021/08/09 14:48:32;;;;;;;4.10;2.70;;;;;;;35.32;29.42;100476.45;117341;1185;21858;-70
2021/08/09 14:51:00;;;;;;;4.10;2.80;;;;;;;35.24;29.93;100475.21;117168;1186;22912;-70
2021/08/09 14:53:34;;;;;;;8.40;3.20;;;;;;;35.18;30.08;100473.67;117328;1185;21848;-75
2021/08/09 14:56:03;;;;;;;4.40;2.90;;;;;;;35.19;29.68;100475.04;117409;1185;22918;-68
2021/08/09 14:58:32;;;;;;;3.90;2.90;;;;;;;35.12;29.57;100475.34;117475;1182;23790;-69
2021/08/09 15:01:00;;;;;;;6.50;3.30;;;;;;;34.96;29.78;100477.34;117399;1182;21848;-68
2021/08/09 15:03:29;;;;;;;5.00;3.00;;;;;;;34.88;29.97;100471.70;117375;1185;21889;-69
2021/08/09 15:05:57;;;;;;;5.00;3.30;;;;;;;34.91;30.18;100473.69;117398;1184;21852;-69
2021/08/09 15:08:26;;;;;;;4.90;3.20;;;;;;;34.89;30.54;100477.95;117372;1185;21933;-68
2021/08/09 15:10:54;;;;;;;5.90;3.40;;;;;;;34.84;30.53;100476.15;117294;1183;21857;-72
2021/08/09 15:13:31;;;;;;;4.60;3.60;;;;;;;34.73;30.77;100473.89;117344;1186;21845;-71
2021/08/09 15:15:59;;;;;;;6.40;3.60;;;;;;;34.63;31.28;100472.80;117403;1185;21863;-70
2021/08/09 15:18:28;;;;;;;5.40;3.90;;;;;;;34.64;31.32;100473.31;117338;1183;21854;-70
2021/08/09 15:20:56;;;;;;;5.60;4.40;;;;;;;34.61;31.19;100473.83;117425;1183;23455;-67
2021/08/09 15:23:24;;;;;;;6.90;5.00;;;;;;;34.50;31.37;100473.92;117319;1183;23446;-69
2021/08/09 15:25:53;;;;;;;7.40;4.40;;;;;;;34.42;31.62;100472.77;117361;1182;21857;-69
2021/08/09 15:28:21;;;;;;;7.70;5.80;;;;;;;34.34;31.65;100473.70;117370;1185;21848;-68
2021/08/09 15:30:50;;;;;;;8.70;5.90;;;;;;;34.19;32.04;100474.40;117388;1180;24156;-69
2021/08/09 15:33:18;;;;;;;17.90;7.40;;;;;;;34.10;32.40;100478.03;117308;1186;22984;-70
2021/08/09 15:35:47;;;;;;;9.60;7.70;;;;;;;34.00;32.82;100474.73;117266;1185;24209;-69
2021/08/09 15:38:16;;;;;;;10.80;8.30;;;;;;;33.91;32.89;100474.63;117423;1179;22638;-68
2021/08/09 15:40:45;;;;;;;10.60;8.70;;;;;;;33.76;33.32;100477.13;117584;1183;23455;-68
2021/08/09 15:43:13;;;;;;;12.90;9.70;;;;;;;33.69;33.64;100479.38;117356;1185;21857;-67
2021/08/09 15:45:46;;;;;;;16.00;10.70;;;;;;;33.59;33.49;100482.40;117317;1182;23611;-69
2021/08/09 15:48:16;;;;;;;13.30;10.00;;;;;;;33.39;33.86;100484.38;117284;1176;23480;-69
2021/08/09 15:50:45;;;;;;;12.80;8.80;;;;;;;33.25;34.49;100484.23;117324;1186;21894;-70
2021/08/09 15:53:13;;;;;;;11.10;8.40;;;;;;;33.19;34.73;100487.02;117365;1184;23462;-70
2021/08/09 15:55:42;;;;;;;13.00;8.40;;;;;;;33.04;35.10;100485.85;117303;1183;21864;-70
2021/08/09 15:58:10;;;;;;;11.10;8.40;;;;;;;32.98;35.24;100489.46;117371;1182;21850;-68
2021/08/09 16:00:39;;;;;;;9.60;7.40;;;;;;;32.88;35.75;100490.33;117405;1185;22995;-71
2021/08/09 16:03:07;;;;;;;9.40;7.60;;;;;;;32.74;36.14;100495.19;117359;1185;21880;-70
2021/08/09 16:05:36;;;;;;;9.30;7.10;;;;;;;32.64;36.41;100496.06;117408;1183;21854;-68
2021/08/09 16:08:05;;;;;;;10.50;6.90;;;;;;;32.52;36.80;100496.02;117401;1179;21867;-69
2021/08/09 16:10:33;;;;;;;8.80;6.80;;;;;;;32.40;37.19;100495.57;117431;1182;23570;-69
2021/08/09 16:13:01;;;;;;;13.40;6.90;;;;;;;32.34;37.61;100500.63;117403;1183;23580;-70
2021/08/09 16:15:30;;;;;;;9.10;6.40;;;;;;;32.22;38.00;100501.06;117378;1182;21853;-70
2021/08/09 16:17:58;;;;;;;10.30;6.70;;;;;;;32.06;38.39;100503.60;117501;1183;21860;-70
2021/08/09 16:20:31;;;;;;;8.30;5.80;;;;;;;31.90;38.85;100505.36;117402;1182;22523;-69
2021/08/09 16:22:59;;;;;;;7.70;5.50;;;;;;;31.76;39.28;100504.59;117314;1186;21967;-69
2021/08/09 16:25:28;;;;;;;8.70;6.00;;;;;;;31.63;39.76;100511.68;117377;1184;21845;-69
2021/08/09 16:27:56;;;;;;;8.60;5.90;;;;;;;31.48;40.27;100519.27;117450;1185;21845;-69
2021/08/09 16:30:24;;;;;;;8.20;6.20;;;;;;;31.35;40.64;100524.60;117409;1183;22912;-68
2021/08/09 16:32:53;;;;;;;6.70;5.30;;;;;;;31.21;40.80;100525.05;117424;1186;23537;-69
2021/08/09 16:35:23;;;;;;;7.00;5.10;;;;;;;31.03;41.09;100529.09;117364;1185;21857;-68
2021/08/09 16:37:51;;;;;;;10.60;6.40;;;;;;;30.88;41.58;100530.84;117395;1186;23813;-69
2021/08/09 16:40:20;;;;;;;8.40;5.60;;;;;;;30.81;41.93;100529.20;117441;1183;21848;-69
2021/08/09 16:42:51;;;;;;;6.80;5.20;;;;;;;30.70;42.38;100534.53;117392;1186;23459;-70
2021/08/09 16:45:23;;;;;;;7.70;5.10;;;;;;;30.65;42.40;100535.99;117445;1186;21845;-69
2021/08/09 16:47:53;;;;;;;7.90;5.30;;;;;;;30.55;42.71;100537.17;117425;1183;21848;-69
2021/08/09 16:50:21;;;;;;;8.90;5.80;;;;;;;30.44;43.00;100536.21;117380;1183;21884;-69
2021/08/09 16:52:49;;;;;;;9.30;5.70;;;;;;;30.21;43.53;100536.18;117424;1186;23509;-69
2021/08/09 16:55:18;;;;;;;10.90;5.90;;;;;;;30.02;43.91;100534.54;117387;1184;22648;-69
2021/08/09 16:57:46;;;;;;;7.90;5.80;;;;;;;29.85;43.87;100540.16;117510;1185;22005;-69
2021/08/09 17:00:15;;;;;;;9.50;5.80;;;;;;;29.69;44.28;100540.34;117334;1184;21842;-69
2021/08/09 17:02:43;;;;;;;8.10;5.80;;;;;;;29.52;44.72;100546.41;117486;1183;23504;-69
2021/08/09 17:05:11;;;;;;;11.40;7.30;;;;;;;29.35;45.04;100547.73;117452;1183;21851;-69
2021/08/09 17:07:39;;;;;;;8.40;7.10;;;;;;;29.24;45.15;100544.73;117415;1183;23442;-69
2021/08/09 17:10:09;;;;;;;11.10;7.90;;;;;;;29.11;45.52;100545.45;117348;1182;24151;-69
2021/08/09 17:12:37;;;;;;;11.70;7.60;;;;;;;29.02;45.53;100544.98;117414;1183;23440;-69
2021/08/09 17:15:06;;;;;;;10.20;7.40;;;;;;;29.04;45.52;100543.58;117308;1182;22618;-69
2021/08/09 17:17:36;;;;;;;11.00;7.60;;;;;;;29.06;45.65;100542.85;117398;1179;22655;-69
2021/08/09 17:20:06;;;;;;;15.40;8.00;;;;;;;28.97;45.87;100543.82;117451;1184;23265;-69
2021/08/09 17:22:34;;;;;;;15.70;7.80;;;;;;;28.89;45.86;100538.34;117458;1183;21855;-69
2021/08/09 17:25:04;;;;;;;13.70;10.60;;;;;;;28.81;45.94;100540.35;117390;1183;23563;-69
2021/08/09 17:27:33;;;;;;;13.70;10.40;;;;;;;28.72;46.19;100537.88;117405;1184;21881;-69
2021/08/09 17:30:03;;;;;;;19.60;13.20;;;;;;;28.67;46.44;100536.34;117456;1183;22014;-69
2021/08/09 17:32:31;;;;;;;18.80;14.20;;;;;;;28.61;46.72;100539.16;117470;1183;23433;-69
2021/08/09 17:34:59;;;;;;;20.40;14.80;;;;;;;28.51;46.80;100540.48;118407;1184;21789;-69
2021/08/09 17:37:29;;;;;;;18.20;13.80;;;;;;;28.39;47.24;100539.02;117722;1185;21931;-68
2021/08/09 17:39:57;;;;;;;20.40;13.20;;;;;;;28.27;47.69;100539.55;117234;1185;21854;-68
2021/08/09 17:42:25;;;;;;;18.50;12.40;;;;;;;28.14;47.91;100541.66;117399;1185;22063;-68
2021/08/09 17:44:53;;;;;;;21.60;12.30;;;;;;;28.02;48.23;100543.20;117386;1185;22084;-69
2021/08/09 17:47:22;;;;;;;17.00;12.00;;;;;;;27.96;48.41;100545.16;117526;1183;21854;-67
2021/08/09 17:49:53;;;;;;;18.10;12.30;;;;;;;27.89;48.74;100546.73;117271;1186;21848;-68
2021/08/09 17:52:22;;;;;;;17.40;12.80;;;;;;;27.82;48.92;100551.17;117422;1183;21864;-68
2021/08/09 17:54:50;;;;;;;26.70;14.10;;;;;;;27.73;49.15;100548.95;117583;1182;21845;-69
2021/08/09 17:57:20;;;;;;;27.00;13.50;;;;;;;27.64;49.37;100547.89;117446;1183;21861;-67
2021/08/09 17:59:50;;;;;;;22.70;14.50;;;;;;;27.59;49.50;100552.42;117501;1185;21864;-70
2021/08/09 18:02:19;;;;;;;21.10;13.40;;;;;;;27.56;49.59;100559.02;117481;1182;21854;-69
2021/08/09 18:04:47;;;;;;;23.90;13.70;;;;;;;27.46;49.93;100562.30;117378;1182;23516;-69